πŸ“Š DonnΓ©es MΓ©tΓ©o - Bordeaux

Total mesures

14,319

TempΓ©rature moyenne

18.8Β°C

Temp. Min/Max

2.9Β° / 42.4Β°

HumiditΓ© moyenne

64.9%

Pression moyenne

1014.7 hPa
enregistrements
ID Date/Heure Temp (Β°C) HumiditΓ© (%) Pression (hPa) Tendance LuminositΓ© (lux) Situation
14219 02/09/2026 11:30 25.6 46.0 1,021.8 β†’ Stable 93,708 confortablement-chaud
14218 02/09/2026 11:15 25.2 48.0 1,021.8 β†’ Stable 90,000 confortablement-chaud
14217 02/09/2026 10:45 24.3 50.0 1,022.0 β†’ Stable 69,264 confortablement-chaud (approx.)
14216 02/09/2026 10:15 23.5 53.0 1,022.0 β†’ Stable 61,392 conditions-neutrales-ou-non-definies
14215 02/09/2026 10:00 23.1 54.0 1,022.0 β†’ Stable 59,820 conditions-neutrales-ou-non-definies
14214 02/09/2026 09:45 22.8 56.0 1,021.7 β†’ Stable 56,664 frais-stable
14213 02/09/2026 09:15 22.0 61.0 1,021.7 β†’ Stable 50,460 frais-stable
14212 02/09/2026 08:45 21.4 65.0 1,021.5 β†’ Stable 50,184 frais-stable
14211 02/09/2026 08:15 20.5 68.0 1,021.5 β†’ Stable 47,040 frais-stable
14210 02/09/2026 07:45 19.7 70.0 1,021.1 β†’ Stable 36,300 pluvieux-gris (approx.)
14209 02/09/2026 07:30 18.3 74.0 1,021.1 β†’ Stable 32,868 pluvieux-gris (approx.)
14208 02/09/2026 07:15 17.7 77.0 1,021.1 β†’ Stable 27,876 pluvieux-gris (approx.)
14207 02/09/2026 06:45 16.6 83.0 1,020.6 β†’ Stable 16,296 pluvieux-gris (approx.)
14206 02/09/2026 06:15 15.7 88.0 1,020.6 β†’ Stable 7,128 pluvieux-gris
14205 02/09/2026 05:45 15.2 89.0 1,020.2 β†’ Stable 468 pluvieux-gris
14204 02/09/2026 05:30 15.3 89.0 1,020.2 β†’ Stable 0 pluvieux-gris
14203 02/09/2026 05:15 15.3 89.0 1,020.2 β†’ Stable 0 pluvieux-gris
14202 02/09/2026 04:45 15.6 88.0 1,019.8 β†’ Stable 0 pluvieux-gris
14201 02/09/2026 04:30 15.8 88.0 1,019.8 β†’ Stable 0 pluvieux-gris
14200 02/09/2026 04:15 16.0 86.0 1,019.8 β†’ Stable 0 pluvieux-gris
14199 02/09/2026 03:45 16.3 85.0 1,019.6 β†’ Stable 0 pluvieux-gris (approx.)
14198 02/09/2026 03:30 16.5 87.0 1,019.6 β†’ Stable 0 pluvieux-gris (approx.)
14197 02/09/2026 03:15 16.7 86.0 1,019.6 β†’ Stable 0 pluvieux-gris (approx.)
14196 02/09/2026 03:00 16.8 85.0 1,019.6 β†’ Stable 0 pluvieux-gris (approx.)
14195 02/09/2026 02:45 16.9 85.0 1,019.5 β†’ Stable 0 pluvieux-gris (approx.)
14194 02/09/2026 02:30 17.0 85.0 1,019.5 β†’ Stable 0 pluvieux-gris (approx.)
14193 02/09/2026 02:15 17.1 84.0 1,019.5 β†’ Stable 0 pluvieux-gris (approx.)
14192 02/09/2026 02:00 17.2 84.0 1,019.5 β†’ Stable 0 pluvieux-gris (approx.)
14191 02/09/2026 01:45 17.4 83.0 1,019.7 β†’ Stable 0 pluvieux-gris (approx.)
14190 02/09/2026 01:30 17.6 79.0 1,019.7 β†’ Stable 0 pluvieux-gris (approx.)
14189 02/09/2026 01:15 17.7 78.0 1,019.7 β†’ Stable 0 pluvieux-gris (approx.)
14188 02/09/2026 00:45 18.0 78.0 1,020.0 β†’ Stable 0 pluvieux-gris (approx.)
14187 02/09/2026 00:15 18.3 79.0 1,020.0 β†’ Stable 0 pluvieux-gris (approx.)
14186 01/09/2026 23:45 18.6 78.0 1,019.7 β†’ Stable 0 pluvieux-gris (approx.)
14185 01/09/2026 23:30 18.7 79.0 1,019.7 β†’ Stable 0 pluvieux-gris (approx.)
14184 01/09/2026 23:15 18.9 77.0 1,019.7 β†’ Stable 0 pluvieux-gris (approx.)
14183 01/09/2026 23:00 19.1 76.0 1,019.8 β†’ Stable 0 pluvieux-gris (approx.)
14182 01/09/2026 22:45 19.3 74.0 1,019.4 β†’ Stable 0 pluvieux-gris (approx.)
14181 01/09/2026 22:30 19.3 73.0 1,019.4 β†’ Stable 0 pluvieux-gris (approx.)
14180 01/09/2026 22:15 19.5 70.0 1,019.4 β†’ Stable 0 pluvieux-gris (approx.)
14179 01/09/2026 21:45 20.0 66.0 1,019.5 β†’ Stable 0 frais-stable
14178 01/09/2026 21:15 20.3 64.0 1,019.5 β†’ Stable 0 frais-stable
14177 01/09/2026 20:45 20.9 62.0 1,018.9 β†’ Stable 0 frais-stable
14176 01/09/2026 20:15 21.1 65.0 1,018.9 β†’ Stable 0 frais-stable
14175 01/09/2026 19:45 22.0 61.0 1,018.2 β†’ Stable 0 frais-stable
14174 01/09/2026 19:15 23.1 52.0 1,018.2 β†’ Stable 0 conditions-neutrales-ou-non-definies
14173 01/09/2026 18:45 23.8 49.0 1,017.8 β†’ Stable 0 conditions-neutrales-ou-non-definies
14172 01/09/2026 18:15 25.6 46.0 1,017.8 β†’ Stable 6,384 confortablement-chaud (approx.)
14171 01/09/2026 18:00 25.9 45.0 1,017.8 β†’ Stable 9,720 confortablement-chaud (approx.)
14170 01/09/2026 17:45 26.1 44.0 1,017.8 β†’ Stable 14,724 confortablement-chaud (approx.)
14169 01/09/2026 17:30 26.5 41.0 1,017.8 β†’ Stable 19,908 confortablement-chaud (approx.)
14168 01/09/2026 17:15 26.6 41.0 1,017.8 β†’ Stable 25,092 confortablement-chaud (approx.)
14167 01/09/2026 16:45 26.9 40.0 1,017.8 β†’ Stable 36,108 confortablement-chaud (approx.)
14166 01/09/2026 16:30 27.0 39.0 1,017.8 β†’ Stable 40,272 conditions-neutrales-ou-non-definies
14165 01/09/2026 16:15 27.0 39.0 1,017.8 β†’ Stable 45,096 conditions-neutrales-ou-non-definies
14164 01/09/2026 15:45 27.0 40.0 1,018.1 β†’ Stable 57,132 confortablement-chaud (approx.)
14163 01/09/2026 15:15 26.9 38.0 1,018.1 β†’ Stable 66,204 conditions-neutrales-ou-non-definies
14162 01/09/2026 15:00 26.8 38.0 1,018.1 β†’ Stable 70,368 confortablement-chaud (approx.)
14161 01/09/2026 14:45 26.6 39.0 1,018.5 β†’ Stable 74,076 confortablement-chaud (approx.)
14160 01/09/2026 14:15 26.6 39.0 1,018.5 β†’ Stable 73,428 confortablement-chaud (approx.)
14159 01/09/2026 13:45 26.3 40.0 1,019.0 β†’ Stable 80,376 confortablement-chaud
14158 01/09/2026 13:30 26.3 38.0 1,019.2 β†’ Stable 89,448 confortablement-chaud (approx.)
14157 01/09/2026 13:15 26.1 39.0 1,019.2 β†’ Stable 91,848 confortablement-chaud (approx.)
14156 01/09/2026 13:00 26.0 39.0 1,019.2 β†’ Stable 92,592 confortablement-chaud (approx.)
14155 01/09/2026 12:45 25.8 40.0 1,019.8 β†’ Stable 93,612 confortablement-chaud
14154 01/09/2026 12:30 25.6 39.0 1,019.8 β†’ Stable 94,908 confortablement-chaud (approx.)
14153 01/09/2026 12:15 25.4 40.0 1,019.8 β†’ Stable 96,384 confortablement-chaud
14152 01/09/2026 11:45 24.8 43.0 1,020.3 β†’ Stable 94,812 confortablement-chaud
14151 01/09/2026 11:30 24.4 46.0 1,020.3 β†’ Stable 94,080 confortablement-chaud
14150 01/09/2026 11:15 24.0 47.0 1,020.3 β†’ Stable 92,868 confortablement-chaud
14149 01/09/2026 10:45 23.2 50.0 1,020.9 β†’ Stable 82,776 confortablement-chaud (approx.)
14148 01/09/2026 10:15 23.0 51.0 1,020.9 β†’ Stable 78,240 frais-stable
14147 01/09/2026 09:45 22.3 53.0 1,020.7 β†’ Stable 74,628 frais-stable
14146 01/09/2026 09:30 21.9 55.0 1,020.7 β†’ Stable 65,460 frais-stable
14145 01/09/2026 09:15 21.6 57.0 1,020.7 β†’ Stable 61,944 frais-stable
14144 01/09/2026 09:00 21.2 60.0 1,020.7 β†’ Stable 61,572 frais-stable
14143 01/09/2026 08:45 20.7 63.0 1,020.5 β†’ Stable 58,152 frais-stable
14142 01/09/2026 08:30 20.2 69.0 1,020.5 β†’ Stable 50,736 frais-stable
14141 01/09/2026 08:15 19.8 72.0 1,020.5 β†’ Stable 46,200 pluvieux-gris (approx.)
14140 01/09/2026 07:45 18.4 78.0 1,020.3 β†’ Stable 39,072 pluvieux-gris (approx.)
14139 01/09/2026 07:30 17.2 82.0 1,020.3 β†’ Stable 33,888 pluvieux-gris (approx.)
14138 01/09/2026 07:15 16.6 85.0 1,020.3 β†’ Stable 28,800 pluvieux-gris (approx.)
14137 01/09/2026 06:45 15.6 92.0 1,020.3 β†’ Stable 17,964 pluvieux-gris
14136 01/09/2026 06:15 14.8 95.0 1,020.3 β†’ Stable 8,052 pluvieux-gris
14135 01/09/2026 05:45 14.5 94.0 1,020.0 β†’ Stable 648 pluvieux-gris
14134 01/09/2026 05:15 15.4 91.0 1,020.0 β†’ Stable 0 pluvieux-gris
14133 01/09/2026 04:45 15.8 91.0 1,020.0 β†’ Stable 0 pluvieux-gris
14132 01/09/2026 04:30 15.9 91.0 1,020.0 β†’ Stable 0 pluvieux-gris
14131 01/09/2026 04:15 16.0 91.0 1,020.0 β†’ Stable 0 pluvieux-gris
14130 01/09/2026 03:45 16.3 90.0 1,020.4 β†’ Stable 0 pluvieux-gris (approx.)
14129 01/09/2026 03:15 16.6 90.0 1,020.4 β†’ Stable 0 pluvieux-gris (approx.)
14128 01/09/2026 03:00 16.7 90.0 1,020.4 β†’ Stable 0 pluvieux-gris (approx.)
14127 01/09/2026 02:45 16.9 89.0 1,020.4 β†’ Stable 0 pluvieux-gris (approx.)
14126 01/09/2026 02:30 16.0 92.0 1,020.4 β†’ Stable 0 pluvieux-gris
14125 01/09/2026 02:15 16.1 92.0 1,020.4 β†’ Stable 0 pluvieux-gris (approx.)
14124 01/09/2026 02:00 16.1 92.0 1,020.4 β†’ Stable 0 pluvieux-gris (approx.)
14123 01/09/2026 01:45 16.2 92.0 1,020.6 β†’ Stable 0 pluvieux-gris (approx.)
14122 01/09/2026 01:15 16.4 90.0 1,020.5 β†’ Stable 0 pluvieux-gris (approx.)
14121 01/09/2026 00:45 16.7 90.0 1,020.6 β†’ Stable 0 pluvieux-gris (approx.)
14120 01/09/2026 00:30 16.8 88.0 1,020.6 β†’ Stable 0 pluvieux-gris (approx.)